createdAt,value
2023-01-07T00:02:19.648Z,11.27
2023-01-07T00:07:22.601Z,11.93
2023-01-07T00:12:25.541Z,15.83
2023-01-07T00:17:28.407Z,9.73
2023-01-07T00:22:31.264Z,12.70
2023-01-07T00:27:34.109Z,16.93
2023-01-07T05:36:05.603Z,14.03
2023-01-07T05:41:08.823Z,14.93
2023-01-07T05:46:11.703Z,14.03
2023-01-07T05:51:14.625Z,11.57
2023-01-07T05:56:17.450Z,13.87
2023-01-07T06:01:20.370Z,15.40
2023-01-07T06:06:23.259Z,16.30
2023-01-07T06:11:26.102Z,12.23
2023-01-07T06:16:28.941Z,10.77
2023-01-07T06:21:31.758Z,11.73
2023-01-07T06:26:34.623Z,13.30
2023-01-07T06:31:37.515Z,11.93
2023-01-07T06:36:40.384Z,15.03
2023-01-07T06:41:43.230Z,9.83
2023-01-07T06:46:46.087Z,12.70
2023-01-07T06:51:48.913Z,12.60
2023-01-07T06:56:51.731Z,12.33
2023-01-07T07:01:54.767Z,10.53
2023-01-07T07:06:57.707Z,15.47
2023-01-07T07:12:00.590Z,12.77
2023-01-07T07:17:03.757Z,12.50
2023-01-07T07:22:06.600Z,10.73
2023-01-07T07:27:09.420Z,12.73
2023-01-07T07:32:12.295Z,15.93
2023-01-07T07:37:15.176Z,16.37
2023-01-07T07:42:18.036Z,16.87
2023-01-07T07:47:20.934Z,19.53
2023-01-07T07:52:23.829Z,18.77
2023-01-07T07:57:26.746Z,14.20
2023-01-07T08:02:29.703Z,17.70
2023-01-07T08:07:33.615Z,13.90
2023-01-07T08:12:38.507Z,19.90
2023-01-07T08:17:41.430Z,21.37
2023-01-07T08:22:44.300Z,19.90
2023-01-07T08:27:47.142Z,19.40
2023-01-07T08:32:50.139Z,21.27
2023-01-07T08:37:54.187Z,19.63
2023-01-07T08:43:01.348Z,21.20
2023-01-07T08:48:04.805Z,19.90
2023-01-07T08:53:07.665Z,18.83
2023-01-07T08:58:10.482Z,18.23
2023-01-07T09:03:13.309Z,18.67
2023-01-07T09:08:16.129Z,17.80
2023-01-07T09:13:18.939Z,14.10
2023-01-07T09:18:21.774Z,16.60
2023-01-07T09:23:24.807Z,13.53
2023-01-07T09:28:27.698Z,13.97
2023-01-07T09:33:30.719Z,16.00
2023-01-07T09:38:33.763Z,14.57
2023-01-07T09:44:00.459Z,18.53
2023-01-07T09:49:05.173Z,19.47
2023-01-07T09:54:27.545Z,18.57
2023-01-07T09:59:30.749Z,15.67
2023-01-07T10:04:55.768Z,17.37
2023-01-07T10:10:13.572Z,18.43
2023-01-07T10:15:34.373Z,17.63
2023-01-07T10:20:44.777Z,18.13
2023-01-07T10:25:50.473Z,16.57
2023-01-07T10:30:53.411Z,17.20
2023-01-07T10:36:21.360Z,12.77
2023-01-07T10:41:46.903Z,14.67
2023-01-07T10:47:17.383Z,9.67
2023-01-07T10:52:43.754Z,8.23
2023-01-07T10:57:48.497Z,8.27
2023-01-07T11:02:58.096Z,12.63
2023-01-07T11:08:02.360Z,9.73
2023-01-07T11:13:22.872Z,9.07
2023-01-07T11:18:35.254Z,7.70
2023-01-07T11:23:40.894Z,9.43
2023-01-07T11:29:00.472Z,7.80
2023-01-07T11:34:04.701Z,7.00
2023-01-07T11:39:24.237Z,5.83
2023-01-07T11:44:27.504Z,5.27
2023-01-07T11:49:31.294Z,4.97
2023-01-07T11:54:34.251Z,6.00
2023-01-07T11:59:37.075Z,6.67
2023-01-07T12:04:40.343Z,4.53
2023-01-07T12:09:44.475Z,7.17
2023-01-07T12:14:48.063Z,5.20
2023-01-07T12:20:16.071Z,5.00
2023-01-07T12:25:53.913Z,5.33
2023-01-07T12:31:02.859Z,6.03
2023-01-07T12:36:34.712Z,3.93
2023-01-07T12:41:44.050Z,4.33
2023-01-07T12:47:30.628Z,6.60
2023-01-07T12:53:01.115Z,4.70
2023-01-07T12:58:44.701Z,7.43
2023-01-07T13:04:11.209Z,6.23
2023-01-07T13:09:30.062Z,5.23
2023-01-07T13:14:41.442Z,6.50
2023-01-07T13:19:44.398Z,7.50
2023-01-07T13:24:56.097Z,8.90
2023-01-07T13:30:11.696Z,4.70
2023-01-07T13:35:24.976Z,6.60
2023-01-07T13:40:37.233Z,5.80
2023-01-07T13:45:41.311Z,6.37
2023-01-07T13:51:03.076Z,8.20
2023-01-07T13:56:18.093Z,4.47
2023-01-07T14:01:23.148Z,10.03
2023-01-07T14:06:49.896Z,5.03
2023-01-07T14:12:32.708Z,5.70
2023-01-07T14:17:56.235Z,5.83
2023-01-07T14:23:36.823Z,3.80
2023-01-07T14:29:13.658Z,5.33
2023-01-07T14:34:25.029Z,3.77
2023-01-07T14:39:46.941Z,6.00
2023-01-07T14:44:51.120Z,3.37
2023-01-07T14:50:09.769Z,3.60
2023-01-07T14:55:34.371Z,6.40
2023-01-07T15:00:55.492Z,4.83
2023-01-07T15:06:31.117Z,4.73
2023-01-07T15:11:53.486Z,6.97
2023-01-07T15:16:56.817Z,6.17
2023-01-07T15:22:12.209Z,13.70
2023-01-07T15:27:19.937Z,11.23
2023-01-07T15:32:58.294Z,16.13
2023-01-07T15:38:05.055Z,16.20
2023-01-07T15:43:23.465Z,15.30
2023-01-07T15:48:26.518Z,15.40
2023-01-07T15:53:30.428Z,18.47
2023-01-07T15:58:48.917Z,15.20
2023-01-07T16:03:56.686Z,18.63
2023-01-07T16:09:01.801Z,22.70
2023-01-07T16:14:11.888Z,19.10
2023-01-07T16:19:19.743Z,18.70
2023-01-07T16:24:22.915Z,17.93
2023-01-07T16:29:31.720Z,16.30
2023-01-07T16:34:34.519Z,12.67
2023-01-07T16:39:42.738Z,7.97
2023-01-07T16:44:45.706Z,7.80
2023-01-07T16:49:49.866Z,10.63
2023-01-07T16:54:52.770Z,9.57
2023-01-07T16:59:57.998Z,11.93
2023-01-07T17:05:26.607Z,9.67
2023-01-07T17:10:43.602Z,13.10
2023-01-07T17:15:46.535Z,18.90
2023-01-07T17:20:52.780Z,23.30
2023-01-07T17:26:10.686Z,23.17
2023-01-07T17:31:13.754Z,13.30
2023-01-07T17:36:21.245Z,15.63
2023-01-07T17:41:43.185Z,20.77
2023-01-07T17:46:46.075Z,18.43
2023-01-07T17:51:49.598Z,19.87
2023-01-07T17:56:53.174Z,20.63
2023-01-07T18:01:57.052Z,21.40
2023-01-07T18:07:00.098Z,20.27
2023-01-07T18:12:21.519Z,35.07
2023-01-07T18:17:24.566Z,35.30
2023-01-07T18:22:27.643Z,35.43
2023-01-07T18:27:30.585Z,40.40
2023-01-07T18:32:33.580Z,48.30
2023-01-07T18:37:36.545Z,41.43
2023-01-07T18:42:39.476Z,47.13
2023-01-07T18:47:43.038Z,54.47
2023-01-07T18:52:45.986Z,50.97
2023-01-07T18:57:48.796Z,69.70
2023-01-07T19:02:51.805Z,78.30
2023-01-07T19:07:58.186Z,75.40
2023-01-07T19:13:01.715Z,79.73
2023-01-07T19:18:04.933Z,79.80
2023-01-07T19:23:07.803Z,80.33
2023-01-07T19:28:11.115Z,71.60
2023-01-07T19:33:14.095Z,68.47
2023-01-07T19:38:17.161Z,65.50
2023-01-07T19:43:20.005Z,72.77
2023-01-07T19:48:23.427Z,63.30
2023-01-07T19:53:27.146Z,65.30
2023-01-07T19:58:30.365Z,67.27
2023-01-07T20:03:34.385Z,68.80
2023-01-07T20:08:38.163Z,57.10
2023-01-07T20:13:43.890Z,56.23
2023-01-07T20:18:49.275Z,59.00
2023-01-07T20:23:52.818Z,65.73
2023-01-07T20:28:56.168Z,65.77
2023-01-07T20:33:59.653Z,54.77
2023-01-07T20:39:06.026Z,62.83
2023-01-07T20:44:10.699Z,66.47
2023-01-07T20:49:15.818Z,71.73
2023-01-07T20:54:18.824Z,57.47
2023-01-07T20:59:21.878Z,54.07
2023-01-07T21:04:24.799Z,59.87
2023-01-07T21:09:27.647Z,59.27
2023-01-07T21:14:30.785Z,63.13
2023-01-07T21:19:33.663Z,55.03
2023-01-07T21:24:36.976Z,50.17
2023-01-07T21:29:39.854Z,49.53
2023-01-07T21:34:42.888Z,49.53
2023-01-07T21:39:46.136Z,50.67
2023-01-07T21:44:49.077Z,57.73
2023-01-07T21:49:53.102Z,62.57
2023-01-07T21:54:56.232Z,69.53
2023-01-07T21:59:59.122Z,64.70
2023-01-07T22:05:02.071Z,60.13
2023-01-07T22:10:05.233Z,52.57
2023-01-07T22:15:09.034Z,48.17
2023-01-07T22:20:12.400Z,47.20
2023-01-07T22:25:15.323Z,43.07
2023-01-07T22:30:19.802Z,51.93
2023-01-07T22:35:22.720Z,50.80
2023-01-07T22:40:25.516Z,48.40
2023-01-07T22:46:02.936Z,48.30
2023-01-07T22:51:19.986Z,46.37
2023-01-07T22:56:23.367Z,40.90
2023-01-07T23:01:26.244Z,35.63
2023-01-07T23:06:29.190Z,36.40
2023-01-07T23:11:48.028Z,39.70
2023-01-07T23:16:51.809Z,42.17
2023-01-07T23:21:55.752Z,49.23
2023-01-07T23:26:58.615Z,52.63
2023-01-07T23:32:01.533Z,37.47
2023-01-07T23:37:04.450Z,34.73
2023-01-07T23:42:07.607Z,36.30
2023-01-07T23:47:10.528Z,35.27
2023-01-07T23:52:13.383Z,30.53
2023-01-07T23:57:16.242Z,29.43
